Llano, TX

4:08 PM CDT on August 30, 2016 (GMT -0500)
Llano

Weather History for KAQO - December, 2013

Change the Weather History Date:

Monday, December 23, 2013

  Actual Average (KBMQ) Record (KBMQ)
Temperature  
Mean Temperature 40 °F -  
Max Temperature 55 °F 55 °F 75 °F (2015)
Min Temperature 24 °F 34 °F 21 °F (1998)
Degree Days  
Heating Degree Days 26    
Moisture  
Dew Point 26 °F    
Average Humidity 68    
Maximum Humidity 93    
Minimum Humidity 26    
Precipitation  
Precipitation 0.00 in - - ()
Sea Level Pressure  
Sea Level Pressure 30.49 in    
Wind  
Wind Speed 0 mph (West)    
Max Wind Speed 5 mph    
Max Gust Speed -    
Visibility 10 miles    
Events      
Averages and records for this station are not official NWS values.
T = Trace of Precipitation, MM = Missing Value Source: NWS Daily Summary

Daily Weather History Graph

Daily Weather History Graph

Search for Another Location

Airport or City:

Trip Planner

Search our weather history database for the weather conditions in past years. The results will help you decide how hot, cold, wet, or windy it might be!

Date:

Astronomy

Dec. 23, 2013 Rise Set
Actual Time 7:29 AM CST 5:38 PM CST
Civil Twilight 7:02 AM CST 6:05 PM CST
Nautical Twilight 6:32 AM CST 6:35 PM CST
Astronomical Twilight 6:03 AM CST 7:04 PM CST
Moon 11:26 PM CST (12/23) 11:16 AM CST (12/23)
Length of Visible Light 11h 02m
Length of Day
10h 09m
Waning Gibbous, 68% of the Moon is Illuminated
Dec 23
Waning Gibbous
Dec 25
Last Quarter
Jan 1
New
Jan 7
First Quarter
Jan 15
Full

Hourly Weather History & Observations

Time (CST) Temp. Windchill Dew Point Humidity Pressure Visibility Wind Dir Wind Speed Gust Speed Precip Events Conditions
12:15 AM 30.2 °F - 28.4 °F 93% 30.42 in 10.0 mi Calm Calm - N/A   Clear
12:35 AM 32.0 °F - 26.6 °F 80% 30.42 in 10.0 mi Calm Calm - N/A   Clear
12:55 AM 30.2 °F - 28.4 °F 93% 30.42 in 10.0 mi Calm Calm - N/A   Clear
1:15 AM 30.2 °F - 26.6 °F 86% 30.42 in 10.0 mi Calm Calm - N/A   Clear
1:35 AM 30.2 °F - 26.6 °F 86% 30.43 in 10.0 mi Calm Calm - N/A   Clear
1:55 AM 28.4 °F - 24.8 °F 86% 30.43 in 10.0 mi Calm Calm - N/A   Clear
2:15 AM 28.4 °F - 26.6 °F 93% 30.42 in 10.0 mi Calm Calm - N/A   Clear
2:35 AM 28.4 °F 23.3 °F 26.6 °F 93% 30.42 in 10.0 mi North 4.6 mph - N/A   Clear
2:55 AM 28.4 °F 24.6 °F 26.6 °F 93% 30.43 in 10.0 mi North 3.5 mph - N/A   Clear
3:15 AM 28.4 °F - 24.8 °F 86% 30.43 in 10.0 mi Calm Calm - N/A   Clear
3:35 AM 28.4 °F - 26.6 °F 93% 30.42 in 10.0 mi Calm Calm - N/A   Clear
3:55 AM 28.4 °F - 24.8 °F 86% 30.42 in 10.0 mi Calm Calm - N/A   Clear
4:15 AM 28.4 °F - 26.6 °F 93% 30.43 in 10.0 mi Calm Calm - N/A   Clear
4:35 AM 28.4 °F - 24.8 °F 86% 30.44 in 10.0 mi Calm Calm - N/A   Clear
4:55 AM 28.4 °F - 24.8 °F 86% 30.44 in 10.0 mi Calm Calm - N/A   Clear
5:15 AM 26.6 °F - 23.0 °F 86% 30.43 in 10.0 mi Calm Calm - N/A   Clear
5:35 AM 26.6 °F - 23.0 °F 86% 30.44 in 10.0 mi Calm Calm - N/A   Clear
5:55 AM 26.6 °F - 23.0 °F 86% 30.45 in 10.0 mi Calm Calm - N/A   Clear
6:15 AM 26.6 °F - 23.0 °F 86% 30.46 in 10.0 mi Calm Calm - N/A   Clear
6:35 AM 24.8 °F - 21.2 °F 86% 30.46 in 10.0 mi Calm Calm - N/A   Clear
6:55 AM 26.6 °F - 23.0 °F 86% 30.47 in 10.0 mi Calm Calm - N/A   Clear
7:15 AM 26.6 °F - 23.0 °F 86% 30.47 in 10.0 mi Calm Calm - N/A   Clear
7:35 AM 24.8 °F - 23.0 °F 93% 30.48 in 10.0 mi Calm Calm - N/A   Clear
7:55 AM 26.6 °F - 23.0 °F 86% 30.49 in 10.0 mi Calm Calm - N/A   Clear
8:15 AM 28.4 °F - 26.6 °F 93% 30.50 in 10.0 mi Calm Calm - N/A   Clear
8:35 AM 30.2 °F - 26.6 °F 86% 30.51 in 10.0 mi Calm Calm - N/A   Clear
8:55 AM 32.0 °F 27.5 °F 28.4 °F 87% 30.52 in 10.0 mi WNW 4.6 mph - N/A   Clear
9:15 AM 32.0 °F 27.5 °F 28.4 °F 87% 30.52 in 10.0 mi NW 4.6 mph - N/A   Clear
9:35 AM 35.6 °F - 30.2 °F 81% 30.53 in 10.0 mi Calm Calm - N/A   Clear
9:55 AM 37.4 °F - 30.2 °F 75% 30.53 in 10.0 mi Calm Calm - N/A   Clear
10:15 AM 37.4 °F 34.9 °F 30.2 °F 75% 30.54 in 10.0 mi SW 3.5 mph - N/A   Clear
10:35 AM 39.2 °F 35.9 °F 30.2 °F 70% 30.54 in 10.0 mi SSW 4.6 mph - N/A   Clear
10:55 AM 42.8 °F - 28.4 °F 57% 30.54 in 10.0 mi Calm Calm - N/A   Clear
11:15 AM 42.8 °F - 26.6 °F 53% 30.53 in 10.0 mi Calm Calm - N/A   Clear
11:35 AM 44.6 °F - 28.4 °F 53% 30.52 in 10.0 mi Calm Calm - N/A   Clear
11:55 AM 44.6 °F - 26.6 °F 49% 30.52 in 10.0 mi Calm Calm - N/A   Clear
12:15 PM 46.4 °F - 24.8 °F 43% 30.52 in 10.0 mi Calm Calm - N/A   Clear
12:35 PM 46.4 °F - 23.0 °F 40% 30.50 in 10.0 mi Calm Calm - N/A   Clear
12:55 PM 48.2 °F - 24.8 °F 40% 30.50 in 10.0 mi Calm Calm - N/A   Clear
1:15 PM 48.2 °F - 23.0 °F 37% 30.49 in 10.0 mi Calm Calm - N/A   Clear
1:35 PM 50.0 °F - 21.2 °F 32% 30.49 in 10.0 mi Calm Calm - N/A   Clear
1:55 PM 51.8 °F - 23.0 °F 33% 30.48 in 10.0 mi Calm Calm - N/A   Clear
2:15 PM 51.8 °F - 23.0 °F 33% 30.47 in 10.0 mi Calm Calm - N/A   Clear
2:35 PM 53.6 °F - 21.2 °F 28% 30.47 in 10.0 mi SSW 4.6 mph - N/A   Clear
2:55 PM 53.6 °F - 19.4 °F 26% 30.47 in 10.0 mi Calm Calm - N/A   Clear
3:15 PM 53.6 °F - 19.4 °F 26% 30.46 in 10.0 mi Calm Calm - N/A   Clear
3:35 PM 55.4 °F - 21.2 °F 26% 30.47 in 10.0 mi Calm Calm - N/A   Clear
3:55 PM 53.6 °F - 19.4 °F 26% 30.47 in 10.0 mi Calm Calm - N/A   Clear
4:15 PM 53.6 °F - 19.4 °F 26% 30.48 in 10.0 mi Calm Calm - N/A   Clear
4:35 PM 53.6 °F - 21.2 °F 28% 30.48 in 10.0 mi Calm Calm - N/A   Clear
4:55 PM 53.6 °F - 21.2 °F 28% 30.48 in 10.0 mi Calm Calm - N/A   Clear
5:15 PM 51.8 °F - 21.2 °F 30% 30.48 in 10.0 mi Calm Calm - N/A   Clear
5:35 PM 50.0 °F - 24.8 °F 37% 30.47 in 10.0 mi Calm Calm - N/A   Clear
5:55 PM 48.2 °F - 23.0 °F 37% 30.47 in 10.0 mi Calm Calm - N/A   Clear
6:15 PM 44.6 °F - 26.6 °F 49% 30.48 in 10.0 mi Calm Calm - N/A   Clear
6:35 PM 44.6 °F - 24.8 °F 46% 30.49 in 10.0 mi Calm Calm - N/A   Clear
6:55 PM 39.2 °F - 28.4 °F 65% 30.49 in 10.0 mi Calm Calm - N/A   Clear
7:15 PM 37.4 °F - 30.2 °F 75% 30.50 in 10.0 mi Calm Calm - N/A   Clear
7:35 PM 39.2 °F - 28.4 °F 65% 30.50 in 10.0 mi Calm Calm - N/A   Clear
7:55 PM 35.6 °F - 28.4 °F 75% 30.51 in 10.0 mi Calm Calm - N/A   Clear
8:15 PM 33.8 °F - 30.2 °F 87% 30.52 in 10.0 mi Calm Calm - N/A   Clear
8:35 PM 33.8 °F - 30.2 °F 87% 30.52 in 10.0 mi Calm Calm - N/A   Clear
8:55 PM 33.8 °F - 28.4 °F 81% 30.53 in 10.0 mi Calm Calm - N/A   Clear
9:15 PM 33.8 °F - 28.4 °F 81% 30.53 in 10.0 mi Calm Calm - N/A   Clear
9:35 PM 35.6 °F - 28.4 °F 75% 30.54 in 10.0 mi Calm Calm - N/A   Clear
9:55 PM 35.6 °F - 30.2 °F 81% 30.54 in 10.0 mi Calm Calm - N/A   Clear
10:15 PM 35.6 °F - 28.4 °F 75% 30.55 in 10.0 mi Calm Calm - N/A   Clear
10:35 PM 35.6 °F - 28.4 °F 75% 30.55 in 10.0 mi Calm Calm - N/A   Clear
10:55 PM 37.4 °F - 30.2 °F 75% 30.56 in 10.0 mi Calm Calm - N/A   Clear
11:15 PM 35.6 °F - 28.4 °F 75% 30.56 in 10.0 mi Calm Calm - N/A   Clear
11:35 PM 33.8 °F - 28.4 °F 81% 30.56 in 10.0 mi Calm Calm - N/A   Clear
11:55 PM 33.8 °F - 28.4 °F 81% 30.56 in 10.0 mi Calm Calm - N/A   Clear